createdAt,value
2019-01-17T00:03:48.842Z,13.63
2019-01-17T00:10:10.225Z,10.63
2019-01-17T00:13:12.001Z,14.10
2019-01-17T00:16:35.634Z,11.03
2019-01-17T00:19:18.953Z,12.90
2019-01-17T00:22:45.043Z,12.77
2019-01-17T00:25:41.031Z,16.77
2019-01-17T00:29:19.171Z,14.10
2019-01-17T00:32:21.316Z,15.43
2019-01-17T00:35:23.898Z,15.77
2019-01-17T00:38:12.917Z,14.33
2019-01-17T00:41:20.665Z,12.23
2019-01-17T00:44:27.370Z,12.50
2019-01-17T00:47:35.984Z,10.40
2019-01-17T00:50:42.353Z,12.00
2019-01-17T00:53:36.547Z,8.63
2019-01-17T00:56:28.883Z,8.60
2019-01-17T00:59:20.873Z,9.97
2019-01-17T01:02:11.854Z,7.83
2019-01-17T01:04:58.968Z,7.90
2019-01-17T01:08:08.943Z,7.33
2019-01-17T01:11:04.725Z,6.67
2019-01-17T01:14:16.330Z,7.63
2019-01-17T01:17:31.633Z,6.03
2019-01-17T01:20:14.297Z,6.50
2019-01-17T01:23:02.331Z,6.40
2019-01-17T01:25:48.955Z,6.60
2019-01-17T01:28:37.645Z,7.10
2019-01-17T01:31:33.876Z,7.60
2019-01-17T01:34:15.533Z,6.93
2019-01-17T01:37:18.348Z,5.10
2019-01-17T01:40:14.595Z,5.23
2019-01-17T01:43:00.833Z,5.87
2019-01-17T01:46:13.197Z,5.73
2019-01-17T01:48:57.409Z,6.23
2019-01-17T01:51:49.359Z,5.53
2019-01-17T01:54:22.084Z,6.20
2019-01-17T01:56:50.457Z,5.87
2019-01-17T01:59:20.863Z,5.70
2019-01-17T02:01:54.549Z,5.60
2019-01-17T02:04:33.957Z,4.93
2019-01-17T02:07:03.497Z,5.90
2019-01-17T02:09:33.764Z,5.70
2019-01-17T02:12:03.042Z,6.17
2019-01-17T02:14:36.300Z,6.23
2019-01-17T02:17:12.796Z,5.80
2019-01-17T02:19:42.378Z,5.33
2019-01-17T02:22:22.679Z,5.60
2019-01-17T02:25:03.527Z,7.27
2019-01-17T02:27:37.271Z,5.97
2019-01-17T02:30:06.640Z,5.33
2019-01-17T02:32:40.102Z,5.43
2019-01-17T02:35:20.904Z,6.17
2019-01-17T02:37:52.388Z,5.40
2019-01-17T02:40:35.965Z,6.20
2019-01-17T02:43:14.002Z,5.80
2019-01-17T02:45:52.297Z,6.27
2019-01-17T02:48:38.268Z,5.83
2019-01-17T02:51:22.278Z,5.13
2019-01-17T02:54:03.568Z,5.60
2019-01-17T02:56:40.987Z,5.20
2019-01-17T02:59:25.079Z,5.80
2019-01-17T03:02:13.559Z,6.27
2019-01-17T03:04:51.121Z,5.70
2019-01-17T03:07:21.139Z,6.50
2019-01-17T03:09:56.644Z,6.03
2019-01-17T03:12:26.154Z,6.10
2019-01-17T03:14:56.338Z,5.77
2019-01-17T03:17:41.248Z,6.00
2019-01-17T03:20:14.946Z,5.30
2019-01-17T03:22:52.721Z,5.33
2019-01-17T03:25:33.394Z,6.23
2019-01-17T03:28:09.525Z,6.77
2019-01-17T03:30:39.129Z,6.87
2019-01-17T03:33:16.940Z,7.23
2019-01-17T03:36:03.802Z,6.90
2019-01-17T03:38:39.035Z,7.47
2019-01-17T03:41:14.038Z,5.73
2019-01-17T03:43:48.617Z,8.30
2019-01-17T03:46:18.771Z,7.77
2019-01-17T03:49:12.801Z,7.80
2019-01-17T03:51:48.332Z,7.87
2019-01-17T03:54:50.253Z,8.83
2019-01-17T03:57:22.268Z,7.70
2019-01-17T03:59:51.767Z,9.03
2019-01-17T04:02:23.079Z,9.27
2019-01-17T04:04:53.183Z,8.93
2019-01-17T04:07:23.045Z,8.70
2019-01-17T04:09:52.835Z,9.07
2019-01-17T04:12:23.794Z,9.13
2019-01-17T04:14:53.902Z,9.73
2019-01-17T04:17:23.797Z,9.50
2019-01-17T04:19:53.294Z,9.67
2019-01-17T04:22:22.947Z,9.47
2019-01-17T04:24:57.254Z,9.50
2019-01-17T04:27:24.797Z,10.63
2019-01-17T04:29:55.382Z,9.70
2019-01-17T04:32:35.426Z,10.47
2019-01-17T04:35:18.527Z,11.63
2019-01-17T04:38:08.612Z,11.63
2019-01-17T04:40:40.563Z,11.27
2019-01-17T04:43:13.644Z,10.90
2019-01-17T04:45:51.014Z,11.07
2019-01-17T04:48:45.735Z,11.57
2019-01-17T04:51:29.883Z,11.40
2019-01-17T04:54:17.554Z,11.03
2019-01-17T04:57:00.787Z,11.43
2019-01-17T04:59:37.443Z,11.73
2019-01-17T05:02:24.889Z,11.80
2019-01-17T05:05:18.553Z,11.27
2019-01-17T05:07:59.799Z,11.83
2019-01-17T05:10:36.789Z,12.07
2019-01-17T05:16:13.214Z,12.80
2019-01-17T05:18:43.259Z,11.53
2019-01-17T05:21:34.375Z,12.87
2019-01-17T05:24:33.991Z,14.07
2019-01-17T05:27:14.618Z,13.37
2019-01-17T05:29:58.423Z,13.03
2019-01-17T05:32:36.857Z,13.63
2019-01-17T05:35:06.197Z,12.37
2019-01-17T05:37:49.823Z,14.37
2019-01-17T05:40:50.109Z,11.37
2019-01-17T05:43:41.376Z,14.00
2019-01-17T05:46:14.028Z,13.53
2019-01-17T05:49:04.384Z,13.77
2019-01-17T05:51:59.442Z,14.87
2019-01-17T05:54:47.298Z,15.00
2019-01-17T05:57:29.847Z,17.23
2019-01-17T06:00:09.921Z,17.20
2019-01-17T06:06:36.627Z,17.33
2019-01-17T09:29:05.952Z,8.20
2019-01-17T09:32:01.936Z,8.13
2019-01-17T09:38:27.985Z,6.90
2019-01-17T09:41:01.369Z,7.53
2019-01-17T09:44:18.994Z,10.30
2019-01-17T09:53:59.617Z,5.10
2019-01-17T09:56:55.849Z,6.53
2019-01-17T09:59:37.249Z,5.30
2019-01-17T10:02:20.101Z,6.83
2019-01-17T10:04:50.124Z,4.23
2019-01-17T10:07:40.467Z,4.40
2019-01-17T10:10:35.081Z,4.57
2019-01-17T10:13:11.121Z,4.40
2019-01-17T10:16:07.536Z,5.60
2019-01-17T10:19:21.098Z,6.57
2019-01-17T10:22:31.742Z,6.50
2019-01-17T10:25:48.203Z,4.23
2019-01-17T10:29:01.160Z,4.00
2019-01-17T10:32:06.266Z,3.93
2019-01-17T10:35:03.272Z,3.50
2019-01-17T10:38:11.211Z,3.70
2019-01-17T10:41:01.260Z,3.10
2019-01-17T10:44:10.099Z,3.57
2019-01-17T10:47:19.880Z,3.80
2019-01-17T10:50:29.454Z,4.50
2019-01-17T10:53:38.132Z,4.37
2019-01-17T10:57:00.352Z,4.33
2019-01-17T11:00:05.551Z,4.10
2019-01-17T11:03:30.937Z,3.40
2019-01-17T11:06:41.553Z,4.27
2019-01-17T11:09:30.690Z,3.10
2019-01-17T11:12:45.216Z,2.63
2019-01-17T11:15:37.670Z,2.50
2019-01-17T11:18:35.294Z,2.00
2019-01-17T11:21:59.673Z,2.10
2019-01-17T11:24:40.158Z,2.10
2019-01-17T11:27:43.948Z,1.60
2019-01-17T11:30:32.515Z,5.00
2019-01-17T11:33:31.009Z,2.20
2019-01-17T11:36:36.654Z,2.10
2019-01-17T11:39:26.774Z,2.00
2019-01-17T11:42:34.051Z,2.20
2019-01-17T11:45:25.811Z,3.60
2019-01-17T11:48:19.795Z,1.53
2019-01-17T11:51:16.033Z,3.00
2019-01-17T11:54:02.627Z,1.73
2019-01-17T11:56:51.985Z,1.90
2019-01-17T11:59:31.583Z,1.90
2019-01-17T12:02:39.226Z,1.67
2019-01-17T12:05:08.459Z,2.07
2019-01-17T12:07:38.210Z,2.00
2019-01-17T12:10:08.565Z,2.73
2019-01-17T12:12:39.467Z,1.97
2019-01-17T12:15:10.013Z,2.83
2019-01-17T12:17:39.504Z,2.93
2019-01-17T12:20:09.527Z,2.80
2019-01-17T12:55:02.923Z,5.63
2019-01-17T12:57:32.212Z,6.07
2019-01-17T13:00:07.579Z,4.10
2019-01-17T13:02:32.513Z,5.77
2019-01-17T13:05:01.915Z,5.57
2019-01-17T13:07:31.520Z,5.03
2019-01-17T13:10:01.918Z,4.90
2019-01-17T13:12:36.721Z,3.40
2019-01-17T13:15:06.657Z,3.07
2019-01-17T13:17:36.016Z,2.93
2019-01-17T13:20:16.634Z,1.87
2019-01-17T13:22:46.228Z,5.83
2019-01-17T13:25:21.172Z,2.60
2019-01-17T13:27:50.801Z,2.40
2019-01-17T13:30:27.764Z,2.27
2019-01-17T13:32:59.954Z,2.70
2019-01-17T13:35:29.048Z,2.77
2019-01-17T13:37:58.371Z,2.77
2019-01-17T13:40:28.828Z,2.07
2019-01-17T13:42:59.944Z,2.73
2019-01-17T13:45:32.912Z,2.57
2019-01-17T13:48:06.030Z,2.50
2019-01-17T13:50:35.682Z,2.53
2019-01-17T13:53:05.671Z,3.60
2019-01-17T13:55:36.088Z,2.63
2019-01-17T13:58:12.452Z,3.17
2019-01-17T14:00:42.734Z,3.80
2019-01-17T14:03:12.579Z,3.60
2019-01-17T14:05:41.965Z,3.40
2019-01-17T14:08:11.473Z,3.63
2019-01-17T14:10:41.119Z,4.97
2019-01-17T14:13:12.704Z,5.80
2019-01-17T14:15:43.051Z,6.00
2019-01-17T14:18:12.708Z,7.13
2019-01-17T14:20:43.040Z,7.90
2019-01-17T14:23:18.136Z,7.83
2019-01-17T14:25:47.972Z,8.40
2019-01-17T14:28:17.564Z,8.47
2019-01-17T14:30:50.243Z,8.47
2019-01-17T14:33:21.093Z,8.40
2019-01-17T14:35:50.700Z,8.03
2019-01-17T14:38:19.892Z,8.10
2019-01-17T14:40:49.553Z,6.30
2019-01-17T14:43:18.797Z,7.40
2019-01-17T14:45:48.519Z,5.93
2019-01-17T14:48:17.914Z,6.07
2019-01-17T14:50:47.510Z,5.37
2019-01-17T14:53:38.752Z,4.77
2019-01-17T14:56:29.345Z,5.73
2019-01-17T14:59:04.896Z,5.43
2019-01-17T15:05:10.442Z,6.43
2019-01-17T15:08:33.732Z,7.03
2019-01-17T15:14:35.368Z,6.27
2019-01-17T15:17:02.726Z,6.37
2019-01-17T15:20:04.785Z,5.87
2019-01-17T15:23:00.437Z,5.27
2019-01-17T15:29:18.941Z,7.60
2019-01-17T15:32:04.131Z,5.57
2019-01-17T15:34:58.183Z,5.73
2019-01-17T15:41:30.454Z,3.87
2019-01-17T15:43:59.984Z,3.17
2019-01-17T15:46:39.115Z,3.20
2019-01-17T15:49:08.616Z,4.27
2019-01-17T15:51:38.219Z,5.87
2019-01-17T15:54:07.951Z,4.40
2019-01-17T15:56:38.735Z,4.17
2019-01-17T15:59:09.996Z,6.63
2019-01-17T16:01:40.220Z,4.87
2019-01-17T16:04:09.895Z,7.20
2019-01-17T16:06:50.411Z,6.57
2019-01-17T16:09:14.581Z,6.37
2019-01-17T16:11:44.023Z,6.20
2019-01-17T16:14:13.346Z,5.30
2019-01-17T16:16:48.228Z,6.07
2019-01-17T16:19:14.326Z,3.87
2019-01-17T16:21:45.886Z,6.60
2019-01-17T16:24:16.262Z,5.03
2019-01-17T16:26:45.732Z,4.90
2019-01-17T16:29:26.343Z,7.53
2019-01-17T16:32:01.994Z,6.77
2019-01-17T16:34:54.672Z,4.33
2019-01-17T16:37:24.048Z,5.20
2019-01-17T16:39:56.409Z,4.73
2019-01-17T16:42:41.163Z,6.80
2019-01-17T16:45:18.346Z,8.83
2019-01-17T16:47:53.982Z,5.47
2019-01-17T16:50:26.818Z,12.90
2019-01-17T16:52:56.154Z,4.47
2019-01-17T16:55:33.046Z,6.80
2019-01-17T16:58:02.413Z,7.60
2019-01-17T17:00:34.963Z,5.40
2019-01-17T17:03:11.242Z,9.77
2019-01-17T17:06:01.315Z,7.43
2019-01-17T17:08:30.771Z,6.97
2019-01-17T17:11:03.031Z,5.47
2019-01-17T17:13:32.370Z,8.03
2019-01-17T17:16:01.585Z,10.83
2019-01-17T17:18:31.605Z,10.47
2019-01-17T17:21:01.504Z,9.37
2019-01-17T17:23:30.782Z,9.37
2019-01-17T17:26:03.704Z,4.80
2019-01-17T17:28:35.557Z,5.90
2019-01-17T17:31:07.255Z,9.60
2019-01-17T17:33:36.689Z,9.87
2019-01-17T17:37:02.512Z,10.10
2019-01-17T17:39:31.530Z,9.10
2019-01-17T17:42:13.279Z,6.97
2019-01-17T17:44:42.427Z,7.00
2019-01-17T17:47:16.244Z,9.27
2019-01-17T17:49:45.594Z,7.20
2019-01-17T17:52:14.577Z,3.87
2019-01-17T17:54:43.611Z,5.03
2019-01-17T17:57:12.775Z,4.53
2019-01-17T17:59:41.875Z,4.37
2019-01-17T18:02:19.107Z,5.30
2019-01-17T18:04:48.487Z,5.57
2019-01-17T18:07:17.434Z,4.13
2019-01-17T18:09:46.569Z,5.50
2019-01-17T18:12:16.406Z,9.23
2019-01-17T18:14:45.916Z,5.70
2019-01-17T18:17:16.366Z,7.63
2019-01-17T18:19:45.626Z,6.33
2019-01-17T18:22:14.657Z,7.30
2019-01-17T18:24:44.253Z,8.57
2019-01-17T18:27:16.808Z,9.90
2019-01-17T18:29:46.874Z,9.13
2019-01-17T18:32:17.208Z,5.37
2019-01-17T18:34:46.515Z,5.97
2019-01-17T18:37:16.203Z,5.83
2019-01-17T18:39:46.398Z,8.50
2019-01-17T18:42:17.789Z,9.67
2019-01-17T18:44:47.189Z,6.20
2019-01-17T18:47:17.771Z,7.00
2019-01-17T18:49:47.142Z,7.07
2019-01-17T18:52:18.101Z,5.80
2019-01-17T18:54:47.383Z,6.33
2019-01-17T18:57:20.551Z,5.77
2019-01-17T18:59:57.542Z,8.40
2019-01-17T19:02:35.971Z,7.97
2019-01-17T19:05:11.649Z,7.37
2019-01-17T19:07:55.104Z,8.13
2019-01-17T19:10:44.075Z,9.57
2019-01-17T19:13:13.514Z,8.40
2019-01-17T19:15:44.486Z,8.00
2019-01-17T19:18:18.017Z,7.90
2019-01-17T19:21:11.483Z,7.90
2019-01-17T19:23:52.497Z,6.87
2019-01-17T19:26:21.893Z,7.97
2019-01-17T19:28:51.110Z,7.47
2019-01-17T19:31:21.421Z,8.73
2019-01-17T19:33:52.012Z,8.87
2019-01-17T19:36:22.565Z,8.20
2019-01-17T19:38:51.936Z,9.63
2019-01-17T19:41:21.551Z,10.37
2019-01-17T19:43:51.199Z,11.07
2019-01-17T19:46:21.159Z,11.17
2019-01-17T19:48:50.480Z,11.87
2019-01-17T19:51:20.044Z,10.83
2019-01-17T19:53:49.665Z,13.50
2019-01-17T19:56:20.420Z,13.07
2019-01-17T19:58:50.001Z,13.13
2019-01-17T20:01:22.622Z,14.23
2019-01-17T20:03:53.489Z,13.80
2019-01-17T20:06:22.908Z,13.10
2019-01-17T20:08:52.414Z,18.97
2019-01-17T20:11:24.537Z,15.33
2019-01-17T20:13:54.270Z,16.30
2019-01-17T20:16:24.186Z,18.10
2019-01-17T20:18:53.844Z,15.30
2019-01-17T20:21:23.204Z,17.10
2019-01-17T20:23:52.714Z,15.17
2019-01-17T20:26:22.660Z,19.83
2019-01-17T20:28:52.103Z,18.60
2019-01-17T20:31:21.625Z,20.43
2019-01-17T20:33:51.354Z,16.90
2019-01-17T20:36:20.935Z,14.73
2019-01-17T20:38:51.268Z,17.60
2019-01-17T20:41:20.814Z,17.00
2019-01-17T20:43:50.250Z,21.57
2019-01-17T20:46:19.632Z,18.67
2019-01-17T20:48:49.875Z,19.20
2019-01-17T20:51:19.323Z,18.70
2019-01-17T20:53:48.702Z,20.97
2019-01-17T20:56:18.133Z,21.23
2019-01-17T20:58:48.797Z,24.33
2019-01-17T21:01:41.859Z,24.07
2019-01-17T21:04:12.984Z,21.67
2019-01-17T21:06:46.166Z,21.07
2019-01-17T21:09:15.903Z,21.37
2019-01-17T21:11:45.821Z,19.90
2019-01-17T21:19:53.463Z,22.13
2019-01-17T21:22:25.095Z,23.00
2019-01-17T21:25:05.928Z,20.97
2019-01-17T21:27:35.006Z,20.47
2019-01-17T21:30:04.723Z,19.90
2019-01-17T21:32:33.920Z,23.57
2019-01-17T21:35:03.056Z,22.73
2019-01-17T21:37:32.076Z,21.93
2019-01-17T21:40:01.144Z,24.53
2019-01-17T21:42:30.254Z,22.17
2019-01-17T21:44:59.537Z,21.73
2019-01-17T21:47:28.567Z,24.07
2019-01-17T21:49:57.652Z,24.53
2019-01-17T21:52:26.710Z,19.63
2019-01-17T21:54:56.223Z,22.67
2019-01-17T21:57:25.150Z,20.80
2019-01-17T21:59:54.233Z,22.17
2019-01-17T22:02:23.220Z,22.00
2019-01-17T22:04:52.739Z,21.90
2019-01-17T22:07:23.787Z,21.70
2019-01-17T22:10:01.727Z,23.17
2019-01-17T22:12:31.347Z,25.23
2019-01-17T22:17:55.872Z,27.90
2019-01-17T22:20:27.863Z,19.93
2019-01-17T22:23:11.028Z,18.90
2019-01-17T22:25:41.082Z,22.17
2019-01-17T22:28:10.898Z,20.77
2019-01-17T22:30:40.040Z,21.60
2019-01-17T22:33:12.268Z,15.97
2019-01-17T22:35:41.422Z,16.97
2019-01-17T22:38:10.414Z,14.47
2019-01-17T22:40:39.603Z,12.27
2019-01-17T22:43:08.763Z,11.47
2019-01-17T22:45:37.854Z,11.20
2019-01-17T22:48:06.991Z,10.43
2019-01-17T22:50:36.149Z,10.57
2019-01-17T22:53:05.201Z,13.07
2019-01-17T22:55:34.529Z,14.47
2019-01-17T22:58:03.562Z,11.63
2019-01-17T23:01:05.349Z,11.97
2019-01-17T23:03:40.491Z,12.53
2019-01-17T23:06:09.576Z,11.83
2019-01-17T23:08:40.350Z,10.33
2019-01-17T23:11:09.382Z,12.67
2019-01-17T23:13:40.289Z,11.03
2019-01-17T23:16:09.443Z,12.37
2019-01-17T23:18:38.920Z,12.77
2019-01-17T23:21:08.024Z,12.30
2019-01-17T23:23:38.438Z,12.83
2019-01-17T23:26:07.468Z,13.93
2019-01-17T23:28:36.454Z,13.07
2019-01-17T23:31:05.412Z,16.43
2019-01-17T23:33:34.380Z,13.80
2019-01-17T23:36:03.395Z,15.13
2019-01-17T23:38:32.419Z,17.53
2019-01-17T23:41:01.366Z,14.33
2019-01-17T23:43:30.338Z,16.60
2019-01-17T23:45:59.372Z,15.53
2019-01-17T23:48:28.291Z,14.93
2019-01-17T23:50:57.232Z,18.83
2019-01-17T23:53:26.308Z,16.80
2019-01-17T23:55:55.340Z,20.23
2019-01-17T23:58:24.426Z,19.23
